createdAt,value
2023-01-30T00:00:01.607Z,1003.70
2023-01-30T00:01:01.614Z,1003.67
2023-01-30T00:02:01.604Z,1003.66
2023-01-30T00:03:01.611Z,1003.62
2023-01-30T00:04:01.584Z,1003.64
2023-01-30T00:05:01.623Z,1003.71
2023-01-30T00:06:01.568Z,1003.75
2023-01-30T00:07:01.547Z,1003.80
2023-01-30T00:08:01.556Z,1003.77
2023-01-30T00:09:01.555Z,1003.81
2023-01-30T00:10:01.511Z,1003.79
2023-01-30T00:11:01.496Z,1003.72
2023-01-30T00:12:01.485Z,1003.58
2023-01-30T00:13:01.486Z,1003.53
2023-01-30T00:14:01.457Z,1003.53
2023-01-30T00:15:01.473Z,1003.67
2023-01-30T00:16:01.472Z,1003.67
2023-01-30T00:17:01.426Z,1003.59
2023-01-30T00:18:01.414Z,1003.51
2023-01-30T00:19:01.413Z,1003.52
2023-01-30T00:20:01.396Z,1003.45
2023-01-30T00:21:01.395Z,1003.26
2023-01-30T00:22:01.365Z,1003.12
2023-01-30T00:23:01.420Z,1002.99
2023-01-30T00:24:01.358Z,1002.97
2023-01-30T00:25:01.448Z,1002.89
2023-01-30T00:26:01.355Z,1002.97
2023-01-30T00:27:01.323Z,1002.95
2023-01-30T00:28:01.352Z,1002.96
2023-01-30T00:29:01.303Z,1003.07
2023-01-30T00:30:03.406Z,1003.11
2023-01-30T00:31:01.297Z,1003.01
2023-01-30T00:32:01.294Z,1002.95
2023-01-30T00:33:01.273Z,1002.92
2023-01-30T00:34:01.236Z,1002.93
2023-01-30T00:35:01.292Z,1002.87
2023-01-30T00:36:01.215Z,1002.96
2023-01-30T00:37:08.036Z,1002.96
2023-01-30T00:38:02.203Z,1002.91
2023-01-30T00:39:01.197Z,1002.92
2023-01-30T00:40:01.167Z,1002.91
2023-01-30T00:41:01.161Z,1002.88
2023-01-30T00:42:01.173Z,1002.86
2023-01-30T00:43:01.166Z,1002.92
2023-01-30T00:44:01.155Z,1003.01
2023-01-30T00:45:01.131Z,1003.04
2023-01-30T00:46:01.145Z,1002.97
2023-01-30T00:47:01.093Z,1002.83
2023-01-30T00:48:01.099Z,1002.88
2023-01-30T00:49:01.116Z,1002.82
2023-01-30T00:50:01.052Z,1002.77
2023-01-30T00:51:01.081Z,1002.68
2023-01-30T00:52:01.037Z,1002.60
2023-01-30T00:53:01.023Z,1002.57
2023-01-30T00:54:01.031Z,1002.60
2023-01-30T00:55:01.014Z,1002.70
2023-01-30T00:56:00.991Z,1002.85
2023-01-30T00:57:00.990Z,1002.84
2023-01-30T00:58:00.979Z,1002.81
2023-01-30T00:59:00.952Z,1002.72
2023-01-30T01:00:00.976Z,1002.73
2023-01-30T01:01:00.942Z,1002.75
2023-01-30T01:02:01.011Z,1002.72
2023-01-30T01:03:00.970Z,1002.83
2023-01-30T01:04:00.918Z,1002.70
2023-01-30T01:05:00.951Z,1002.68
2023-01-30T01:06:00.872Z,1002.53
2023-01-30T01:07:00.868Z,1002.46
2023-01-30T01:08:00.850Z,1002.52
2023-01-30T01:09:00.871Z,1002.52
2023-01-30T01:10:00.836Z,1002.55
2023-01-30T01:11:00.852Z,1002.52
2023-01-30T01:12:00.837Z,1002.45
2023-01-30T01:13:00.810Z,1002.40
2023-01-30T01:14:00.799Z,1002.21
2023-01-30T01:15:00.784Z,1002.18
2023-01-30T01:16:00.811Z,1002.27
2023-01-30T01:17:00.779Z,1002.23
2023-01-30T01:18:00.776Z,1002.15
2023-01-30T01:19:00.736Z,1002.12
2023-01-30T01:20:00.719Z,1002.21
2023-01-30T01:21:00.712Z,1002.30
2023-01-30T01:22:00.777Z,1002.31
2023-01-30T01:23:00.690Z,1002.28
2023-01-30T01:24:00.689Z,1002.31
2023-01-30T01:25:00.689Z,1002.36
2023-01-30T01:26:00.659Z,1002.49
2023-01-30T01:27:00.639Z,1002.48
2023-01-30T01:28:00.651Z,1002.46
2023-01-30T01:29:00.647Z,1002.48
2023-01-30T01:30:02.161Z,1002.43
2023-01-30T01:31:00.623Z,1002.51
2023-01-30T01:32:00.679Z,1002.42
2023-01-30T01:33:00.602Z,1002.41
2023-01-30T01:34:00.594Z,1002.35
2023-01-30T01:35:00.555Z,1002.31
2023-01-30T01:36:00.615Z,1002.24
2023-01-30T01:37:00.542Z,1002.23
2023-01-30T01:38:00.551Z,1002.31
2023-01-30T01:39:00.544Z,1002.26
2023-01-30T01:40:00.516Z,1002.27
2023-01-30T01:41:00.477Z,1002.18
2023-01-30T01:42:00.489Z,1002.21
2023-01-30T01:43:00.467Z,1002.25
2023-01-30T01:44:00.457Z,1002.23
2023-01-30T01:45:00.457Z,1002.26
2023-01-30T01:46:00.442Z,1002.23
2023-01-30T01:47:00.424Z,1002.17
2023-01-30T01:48:00.411Z,1002.23
2023-01-30T01:49:00.402Z,1002.11
2023-01-30T01:50:00.391Z,1002.06
2023-01-30T01:51:00.385Z,1002.13
2023-01-30T01:52:00.368Z,1002.09
2023-01-30T01:53:00.349Z,1002.14
2023-01-30T01:54:00.358Z,1002.13
2023-01-30T01:55:00.325Z,1002.08
2023-01-30T01:56:00.367Z,1002.02
2023-01-30T01:57:00.313Z,1001.96
2023-01-30T01:58:00.318Z,1001.93
2023-01-30T01:59:00.285Z,1001.87
2023-01-30T02:00:00.278Z,1001.77
2023-01-30T02:01:00.297Z,1001.71
2023-01-30T02:02:00.331Z,1001.70
2023-01-30T02:03:00.256Z,1001.68
2023-01-30T02:04:00.225Z,1001.63
2023-01-30T02:05:00.214Z,1001.65
2023-01-30T02:06:00.208Z,1001.69
2023-01-30T02:07:00.197Z,1001.75
2023-01-30T02:08:00.204Z,1001.79
2023-01-30T02:09:00.188Z,1001.87
2023-01-30T02:10:00.230Z,1001.89
2023-01-30T02:11:00.156Z,1001.94
2023-01-30T02:12:00.143Z,1001.94
2023-01-30T02:13:00.139Z,1001.94
2023-01-30T02:14:00.166Z,1001.91
2023-01-30T02:15:00.115Z,1001.88
2023-01-30T02:16:00.121Z,1001.93
2023-01-30T02:17:00.116Z,1001.84
2023-01-30T02:18:00.120Z,1001.88
2023-01-30T02:19:00.093Z,1001.82
2023-01-30T02:20:00.093Z,1001.76
2023-01-30T02:21:00.034Z,1001.79
2023-01-30T02:22:00.026Z,1001.71
2023-01-30T02:23:00.048Z,1001.78
2023-01-30T02:24:00.006Z,1001.73
2023-01-30T02:25:00.029Z,1001.68
2023-01-30T02:26:00.010Z,1001.65
2023-01-30T02:26:59.989Z,1001.65
2023-01-30T02:27:59.979Z,1001.72
2023-01-30T02:28:59.948Z,1001.56
2023-01-30T02:29:59.933Z,1001.66
2023-01-30T02:31:00.257Z,1001.59
2023-01-30T02:31:59.911Z,1001.57
2023-01-30T02:32:59.901Z,1001.59
2023-01-30T02:33:59.894Z,1001.63
2023-01-30T02:34:59.937Z,1001.65
2023-01-30T02:35:59.881Z,1001.64
2023-01-30T02:36:59.896Z,1001.66
2023-01-30T02:37:59.853Z,1001.70
2023-01-30T02:38:59.830Z,1001.70
2023-01-30T02:39:59.830Z,1001.68
2023-01-30T02:40:59.809Z,1001.69
2023-01-30T02:41:59.810Z,1001.68
2023-01-30T02:42:59.839Z,1001.62
2023-01-30T02:43:59.787Z,1001.66
2023-01-30T02:44:59.783Z,1001.73
2023-01-30T02:45:59.833Z,1001.69
2023-01-30T02:46:59.742Z,1001.73
2023-01-30T02:47:59.750Z,1001.75
2023-01-30T02:48:59.749Z,1001.74
2023-01-30T02:49:59.768Z,1001.76
2023-01-30T02:50:59.698Z,1001.67
2023-01-30T02:51:59.702Z,1001.58
2023-01-30T02:52:59.685Z,1001.57
2023-01-30T02:53:59.688Z,1001.63
2023-01-30T02:54:59.683Z,1001.61
2023-01-30T02:55:59.645Z,1001.62
2023-01-30T02:56:59.654Z,1001.59
2023-01-30T02:57:59.650Z,1001.46
2023-01-30T02:58:59.614Z,1001.52
2023-01-30T02:59:59.600Z,1001.47
2023-01-30T03:00:59.621Z,1001.59
2023-01-30T03:01:59.605Z,1001.63
2023-01-30T03:02:59.567Z,1001.66
2023-01-30T03:03:59.558Z,1001.69
2023-01-30T03:04:59.537Z,1001.62
2023-01-30T03:05:59.545Z,1001.50
2023-01-30T03:06:59.538Z,1001.41
2023-01-30T03:07:59.530Z,1001.38
2023-01-30T03:08:59.514Z,1001.33
2023-01-30T03:09:59.494Z,1001.32
2023-01-30T03:10:59.493Z,1001.29
2023-01-30T03:11:59.486Z,1001.27
2023-01-30T03:12:59.451Z,1001.30
2023-01-30T03:13:59.453Z,1001.19
2023-01-30T03:14:59.459Z,1001.18
2023-01-30T03:15:59.497Z,1001.19
2023-01-30T03:16:59.408Z,1001.17
2023-01-30T03:17:59.418Z,1001.12
2023-01-30T03:18:59.393Z,1001.17
2023-01-30T03:19:59.384Z,1001.19
2023-01-30T03:20:59.373Z,1001.16
2023-01-30T03:21:59.357Z,1001.13
2023-01-30T03:22:59.387Z,1001.09
2023-01-30T03:23:59.328Z,1001.03
2023-01-30T03:24:59.315Z,1000.97
2023-01-30T03:25:59.333Z,1000.97
2023-01-30T03:26:59.296Z,1000.93
2023-01-30T03:27:59.284Z,1000.87
2023-01-30T03:28:59.295Z,1000.87
2023-01-30T03:29:59.273Z,1000.82
2023-01-30T03:30:59.365Z,1000.78
2023-01-30T03:31:59.294Z,1000.82
2023-01-30T03:32:59.256Z,1000.76
2023-01-30T03:33:59.216Z,1000.76
2023-01-30T03:34:59.246Z,1000.74
2023-01-30T03:35:59.194Z,1000.72
2023-01-30T03:36:59.175Z,1000.73
2023-01-30T03:37:59.200Z,1000.70
2023-01-30T03:38:59.160Z,1000.71
2023-01-30T03:39:59.178Z,1000.74
2023-01-30T03:40:59.165Z,1000.73
2023-01-30T03:41:59.172Z,1000.75
2023-01-30T03:42:59.118Z,1000.69
2023-01-30T03:43:59.122Z,1000.71
2023-01-30T03:44:59.095Z,1000.70
2023-01-30T03:45:59.154Z,1000.70
2023-01-30T03:46:59.089Z,1000.78
2023-01-30T03:47:59.122Z,1000.70
2023-01-30T03:48:59.043Z,1000.60
2023-01-30T03:49:59.035Z,1000.64
2023-01-30T03:50:59.041Z,1000.66
2023-01-30T03:51:59.043Z,1000.63
2023-01-30T03:52:59.025Z,1000.68
2023-01-30T03:53:59.018Z,1000.64
2023-01-30T03:54:58.985Z,1000.62
2023-01-30T03:55:58.974Z,1000.58
2023-01-30T03:56:58.961Z,1000.58
2023-01-30T03:57:59.035Z,1000.60
2023-01-30T03:58:58.931Z,1000.54
2023-01-30T03:59:58.931Z,1000.51
2023-01-30T04:00:58.940Z,1000.52
2023-01-30T04:01:58.937Z,1000.51
2023-01-30T04:02:58.927Z,1000.51
2023-01-30T04:03:58.907Z,1000.45
2023-01-30T04:04:58.866Z,1000.42
2023-01-30T04:05:58.852Z,1000.36
2023-01-30T04:06:58.872Z,1000.35
2023-01-30T04:07:58.833Z,1000.44
2023-01-30T04:08:58.827Z,1000.40
2023-01-30T04:09:58.833Z,1000.34
2023-01-30T04:10:58.840Z,1000.32
2023-01-30T04:11:58.817Z,1000.21
2023-01-30T04:12:58.785Z,1000.16
2023-01-30T04:13:58.775Z,1000.21
2023-01-30T04:14:58.777Z,1000.16
2023-01-30T04:15:58.818Z,1000.18
2023-01-30T04:16:58.806Z,1000.12
2023-01-30T04:17:58.729Z,1000.16
2023-01-30T04:18:58.736Z,1000.10
2023-01-30T04:19:58.713Z,1000.04
2023-01-30T04:20:58.702Z,1000.10
2023-01-30T04:21:58.679Z,1000.11
2023-01-30T04:22:58.667Z,1000.15
2023-01-30T04:23:58.691Z,1000.09
2023-01-30T04:24:58.660Z,1000.06
2023-01-30T04:25:58.640Z,1000.08
2023-01-30T04:26:58.702Z,1000.03
2023-01-30T04:27:58.618Z,1000.04
2023-01-30T04:28:58.614Z,999.85
2023-01-30T04:29:58.599Z,999.93
2023-01-30T04:30:58.618Z,999.97
2023-01-30T04:31:58.572Z,999.92
2023-01-30T04:32:58.570Z,999.88
2023-01-30T04:33:58.549Z,999.83
2023-01-30T04:34:58.558Z,999.87
2023-01-30T04:35:58.523Z,999.81
2023-01-30T04:36:58.509Z,999.92
2023-01-30T04:37:58.535Z,999.92
2023-01-30T04:38:58.524Z,999.88
2023-01-30T04:39:58.478Z,999.82
2023-01-30T04:40:58.464Z,999.82
2023-01-30T04:41:58.453Z,999.87
2023-01-30T04:42:58.445Z,999.86
2023-01-30T04:43:58.480Z,999.80
2023-01-30T04:44:58.419Z,999.88
2023-01-30T04:45:58.411Z,999.80
2023-01-30T04:46:58.393Z,999.85
2023-01-30T04:47:58.408Z,999.81
2023-01-30T04:49:55.242Z,999.78
2023-01-30T04:50:55.221Z,999.73
2023-01-30T04:51:55.205Z,999.75
2023-01-30T04:52:55.205Z,999.85
2023-01-30T04:53:55.191Z,999.88
2023-01-30T04:54:55.176Z,999.82
2023-01-30T04:55:55.182Z,999.76
2023-01-30T04:56:55.153Z,999.72
2023-01-30T04:57:55.141Z,999.71
2023-01-30T04:58:55.124Z,999.71
2023-01-30T04:59:55.112Z,999.72
2023-01-30T05:00:55.184Z,999.75
2023-01-30T05:01:55.176Z,999.70
2023-01-30T05:02:55.083Z,999.73
2023-01-30T05:03:55.085Z,999.71
2023-01-30T05:04:55.060Z,999.66
2023-01-30T05:05:55.041Z,999.67
2023-01-30T05:06:55.041Z,999.65
2023-01-30T05:07:55.049Z,999.63
2023-01-30T05:08:55.034Z,999.63
2023-01-30T05:09:55.009Z,999.61
2023-01-30T05:10:55.002Z,999.63
2023-01-30T05:11:54.984Z,999.66
2023-01-30T05:12:54.976Z,999.72
2023-01-30T05:13:54.981Z,999.71
2023-01-30T05:14:54.942Z,999.62
2023-01-30T05:15:54.940Z,999.59
2023-01-30T05:16:54.946Z,999.54
2023-01-30T05:17:54.911Z,999.54
2023-01-30T05:18:54.910Z,999.66
2023-01-30T05:19:54.910Z,999.62
2023-01-30T05:20:54.881Z,999.51
2023-01-30T05:21:54.870Z,999.55
2023-01-30T05:22:54.864Z,999.48
2023-01-30T05:23:54.861Z,999.54
2023-01-30T05:24:54.831Z,999.40
2023-01-30T05:25:54.840Z,999.33
2023-01-30T05:26:54.809Z,999.42
2023-01-30T05:27:54.820Z,999.31
2023-01-30T05:28:54.789Z,999.40
2023-01-30T05:29:54.779Z,999.37
2023-01-30T05:30:54.803Z,999.48
2023-01-30T05:31:54.770Z,999.46
2023-01-30T05:32:54.739Z,999.46
2023-01-30T05:33:54.729Z,999.46
2023-01-30T05:34:54.728Z,999.42
2023-01-30T05:35:54.709Z,999.34
2023-01-30T05:36:54.700Z,999.40
2023-01-30T05:37:54.712Z,999.32
2023-01-30T05:38:54.690Z,999.36
2023-01-30T05:39:54.662Z,999.26
2023-01-30T05:40:54.658Z,999.22
2023-01-30T05:41:54.641Z,999.26
2023-01-30T05:42:54.631Z,999.23
2023-01-30T05:43:54.640Z,999.16
2023-01-30T05:44:54.608Z,999.14
2023-01-30T05:45:54.597Z,999.25
2023-01-30T05:46:54.694Z,999.27
2023-01-30T05:47:58.459Z,999.30
2023-01-30T05:48:55.588Z,999.26
2023-01-30T05:49:54.554Z,999.10
2023-01-30T05:50:54.538Z,999.02
2023-01-30T05:51:54.536Z,999.08
2023-01-30T05:52:54.525Z,998.97
2023-01-30T05:53:54.506Z,999.03
2023-01-30T05:54:54.521Z,999.14
2023-01-30T05:55:54.477Z,999.16
2023-01-30T05:56:54.488Z,999.12
2023-01-30T05:57:54.476Z,999.14
2023-01-30T05:58:54.462Z,999.17
2023-01-30T05:59:54.449Z,999.10
2023-01-30T06:00:54.467Z,999.13
2023-01-30T06:01:54.415Z,999.04
2023-01-30T06:02:54.434Z,999.02
2023-01-30T06:03:54.428Z,999.08
2023-01-30T06:04:54.387Z,999.07
2023-01-30T06:05:54.366Z,999.10
2023-01-30T06:06:54.389Z,999.07
2023-01-30T06:07:54.352Z,999.09
2023-01-30T06:08:54.345Z,999.16
2023-01-30T06:09:54.326Z,999.10
2023-01-30T06:10:54.331Z,999.04
2023-01-30T06:11:54.306Z,999.01
2023-01-30T06:12:54.312Z,998.94
2023-01-30T06:13:54.288Z,998.95
2023-01-30T06:14:54.278Z,999.02
2023-01-30T06:15:54.266Z,998.96
2023-01-30T06:16:54.324Z,998.99
2023-01-30T06:17:54.257Z,999.05
2023-01-30T06:18:54.240Z,999.07
2023-01-30T06:19:54.213Z,999.14
2023-01-30T06:20:54.208Z,999.15
2023-01-30T06:21:54.191Z,999.07
2023-01-30T06:22:54.184Z,999.01
2023-01-30T06:23:54.185Z,999.03
2023-01-30T06:24:54.165Z,998.99
2023-01-30T06:25:54.144Z,999.07
2023-01-30T06:26:54.135Z,998.99
2023-01-30T06:27:54.121Z,999.05
2023-01-30T06:28:54.107Z,999.08
2023-01-30T06:29:54.122Z,999.12
2023-01-30T06:30:54.209Z,999.02
2023-01-30T06:31:54.084Z,999.09
2023-01-30T06:32:54.072Z,999.11
2023-01-30T06:33:54.074Z,999.18
2023-01-30T06:34:54.064Z,999.19
2023-01-30T06:35:54.035Z,999.10
2023-01-30T06:36:54.023Z,999.17
2023-01-30T06:37:54.025Z,999.24
2023-01-30T06:38:54.005Z,999.26
2023-01-30T06:39:53.990Z,999.27
2023-01-30T06:40:54.003Z,999.29
2023-01-30T06:41:53.967Z,999.32
2023-01-30T06:42:53.952Z,999.28
2023-01-30T06:43:53.943Z,999.23
2023-01-30T06:44:53.937Z,999.29
2023-01-30T06:45:53.933Z,999.35
2023-01-30T06:46:53.933Z,999.37
2023-01-30T06:47:53.913Z,999.40
2023-01-30T06:48:53.896Z,999.41
2023-01-30T06:49:53.876Z,999.42
2023-01-30T06:50:53.871Z,999.35
2023-01-30T06:51:53.852Z,999.32
2023-01-30T06:52:53.866Z,999.36
2023-01-30T06:53:53.842Z,999.48
2023-01-30T06:54:53.843Z,999.42
2023-01-30T06:55:53.831Z,999.34
2023-01-30T06:56:53.808Z,999.26
2023-01-30T06:57:53.781Z,999.25
2023-01-30T06:58:53.799Z,999.34
2023-01-30T06:59:53.762Z,999.29
2023-01-30T07:00:53.758Z,999.47
2023-01-30T07:01:53.834Z,999.26
2023-01-30T07:02:53.741Z,999.27
2023-01-30T07:03:53.773Z,999.46
2023-01-30T07:04:53.716Z,999.44
2023-01-30T07:05:53.702Z,999.39
2023-01-30T07:06:53.696Z,999.57
2023-01-30T07:07:53.674Z,999.59
2023-01-30T07:08:53.665Z,999.49
2023-01-30T07:10:06.944Z,999.51
2023-01-30T07:10:54.644Z,999.43
2023-01-30T07:11:53.639Z,999.52
2023-01-30T07:12:53.625Z,999.58
2023-01-30T07:13:53.613Z,999.60
2023-01-30T07:14:53.617Z,999.52
2023-01-30T07:15:53.584Z,999.45
2023-01-30T07:16:53.597Z,999.37
2023-01-30T07:17:53.567Z,999.32
2023-01-30T07:18:53.549Z,999.32
2023-01-30T07:19:53.541Z,999.36
2023-01-30T07:20:53.559Z,999.38
2023-01-30T07:21:53.516Z,999.43
2023-01-30T07:22:53.513Z,999.47
2023-01-30T07:23:53.490Z,999.51
2023-01-30T07:24:53.479Z,999.45
2023-01-30T07:25:53.467Z,999.49
2023-01-30T07:26:53.485Z,999.49
2023-01-30T07:27:53.439Z,999.45
2023-01-30T07:28:53.443Z,999.44
2023-01-30T07:29:53.449Z,999.45
2023-01-30T07:30:53.458Z,999.45
2023-01-30T07:31:53.453Z,999.43
2023-01-30T07:32:53.400Z,999.50
2023-01-30T07:33:53.388Z,999.52
2023-01-30T07:34:53.369Z,999.54
2023-01-30T07:35:53.358Z,999.63
2023-01-30T07:36:53.349Z,999.67
2023-01-30T07:37:53.376Z,999.60
2023-01-30T07:38:53.328Z,999.60
2023-01-30T07:39:53.309Z,999.53
2023-01-30T07:40:53.339Z,999.55
2023-01-30T07:41:54.794Z,999.52
2023-01-30T07:42:53.283Z,999.52
2023-01-30T07:43:53.288Z,999.49
2023-01-30T07:44:53.272Z,999.50
2023-01-30T07:45:53.259Z,999.47
2023-01-30T07:46:53.284Z,999.37
2023-01-30T07:47:53.220Z,999.46
2023-01-30T07:48:53.218Z,999.41
2023-01-30T07:49:53.218Z,999.49
2023-01-30T07:50:53.188Z,999.37
2023-01-30T07:51:53.169Z,999.40
2023-01-30T07:52:53.167Z,999.35
2023-01-30T07:53:53.166Z,999.41
2023-01-30T07:54:53.152Z,999.34
2023-01-30T07:55:53.147Z,999.41
2023-01-30T07:56:53.120Z,999.43
2023-01-30T07:57:53.109Z,999.40
2023-01-30T07:58:53.097Z,999.36
2023-01-30T07:59:53.087Z,999.28
2023-01-30T08:00:53.133Z,999.23
2023-01-30T08:01:53.070Z,999.25
2023-01-30T08:02:53.059Z,999.22
2023-01-30T08:03:53.045Z,999.28
2023-01-30T08:04:53.085Z,999.29
2023-01-30T08:05:53.038Z,999.30
2023-01-30T08:06:53.027Z,999.31
2023-01-30T08:07:53.009Z,999.29
2023-01-30T08:08:52.987Z,999.27
2023-01-30T08:09:52.966Z,999.30
2023-01-30T08:10:52.956Z,999.34
2023-01-30T08:11:52.946Z,999.34
2023-01-30T08:12:52.971Z,999.33
2023-01-30T08:13:52.924Z,999.33
2023-01-30T08:14:52.919Z,999.19
2023-01-30T08:15:52.895Z,999.21
2023-01-30T08:16:52.908Z,999.22
2023-01-30T08:17:52.875Z,999.21
2023-01-30T08:18:52.895Z,999.37
2023-01-30T08:19:52.858Z,999.29
2023-01-30T08:20:52.845Z,999.36
2023-01-30T08:21:52.835Z,999.42
2023-01-30T08:22:52.834Z,999.34
2023-01-30T08:23:52.822Z,999.35
2023-01-30T08:24:52.825Z,999.36
2023-01-30T08:25:52.792Z,999.41
2023-01-30T08:26:52.787Z,999.33
2023-01-30T08:27:52.771Z,999.32
2023-01-30T08:28:52.754Z,999.42
2023-01-30T08:29:52.744Z,999.46
2023-01-30T08:30:52.833Z,999.42
2023-01-30T08:31:52.734Z,999.46
2023-01-30T08:32:52.705Z,999.41
2023-01-30T08:33:52.701Z,999.26
2023-01-30T08:34:52.693Z,999.31
2023-01-30T08:35:52.675Z,999.21
2023-01-30T08:36:52.681Z,999.36
2023-01-30T08:37:52.654Z,999.42
2023-01-30T08:38:52.656Z,999.35
2023-01-30T08:39:52.637Z,999.26
2023-01-30T08:40:52.614Z,999.31
2023-01-30T08:41:52.639Z,999.20
2023-01-30T08:42:52.605Z,999.18
2023-01-30T08:43:52.596Z,999.26
2023-01-30T08:44:52.572Z,999.16
2023-01-30T08:45:52.564Z,999.12
2023-01-30T08:46:52.559Z,999.20
2023-01-30T08:47:52.562Z,999.13
2023-01-30T08:48:52.523Z,999.17
2023-01-30T08:49:52.517Z,999.18
2023-01-30T08:50:52.502Z,999.19
2023-01-30T08:51:52.515Z,999.19
2023-01-30T08:52:52.481Z,999.11
2023-01-30T08:53:52.491Z,999.11
2023-01-30T08:54:52.460Z,999.15
2023-01-30T08:55:52.465Z,999.13
2023-01-30T08:56:52.434Z,999.05
2023-01-30T08:57:52.432Z,999.12
2023-01-30T08:58:52.432Z,999.16
2023-01-30T08:59:52.401Z,999.03
2023-01-30T09:00:52.418Z,998.98
2023-01-30T09:01:52.382Z,999.03
2023-01-30T09:02:52.368Z,998.92
2023-01-30T09:03:52.356Z,998.96
2023-01-30T09:04:52.372Z,998.96
2023-01-30T09:05:52.331Z,999.06
2023-01-30T09:06:52.321Z,999.07
2023-01-30T09:07:52.311Z,999.02
2023-01-30T09:08:52.309Z,998.98
2023-01-30T09:09:52.291Z,998.93
2023-01-30T09:10:52.291Z,998.79
2023-01-30T09:11:52.271Z,998.92
2023-01-30T09:12:52.251Z,998.80
2023-01-30T09:13:52.245Z,998.83
2023-01-30T09:14:52.235Z,998.77
2023-01-30T09:15:52.243Z,998.79
2023-01-30T09:16:52.312Z,998.81
2023-01-30T09:17:52.213Z,998.80
2023-01-30T09:18:52.190Z,998.92
2023-01-30T09:19:52.169Z,998.88
2023-01-30T09:20:52.882Z,998.81
2023-01-30T09:21:52.174Z,998.94
2023-01-30T09:22:52.140Z,998.93
2023-01-30T09:23:52.130Z,998.82
2023-01-30T09:24:52.108Z,998.82
2023-01-30T09:25:52.166Z,998.89
2023-01-30T09:26:52.094Z,998.94
2023-01-30T09:27:52.112Z,998.92
2023-01-30T09:28:52.068Z,998.86
2023-01-30T09:29:52.066Z,998.81
2023-01-30T09:30:52.161Z,998.91
2023-01-30T09:31:52.048Z,998.88
2023-01-30T09:32:52.029Z,998.95
2023-01-30T09:33:52.042Z,998.96
2023-01-30T09:34:52.007Z,998.87
2023-01-30T09:35:51.994Z,998.94
2023-01-30T09:36:51.977Z,998.72
2023-01-30T09:37:51.976Z,998.81
2023-01-30T09:38:51.988Z,998.81
2023-01-30T09:39:51.970Z,998.79
2023-01-30T09:40:51.936Z,998.75
2023-01-30T09:41:51.930Z,998.73
2023-01-30T09:42:51.922Z,998.78
2023-01-30T09:43:51.913Z,998.74
2023-01-30T09:44:51.889Z,998.71
2023-01-30T09:45:51.938Z,998.68
2023-01-30T09:46:51.874Z,998.53
2023-01-30T09:47:51.860Z,998.73
2023-01-30T09:48:51.837Z,998.68
2023-01-30T09:49:51.837Z,998.66
2023-01-30T09:50:51.825Z,998.62
2023-01-30T09:51:51.851Z,998.62
2023-01-30T09:52:51.796Z,998.77
2023-01-30T09:53:51.790Z,998.76
2023-01-30T09:54:51.768Z,998.72
2023-01-30T09:55:51.767Z,998.75
2023-01-30T09:56:51.768Z,998.70
2023-01-30T09:57:51.738Z,998.59
2023-01-30T09:58:51.728Z,998.66
2023-01-30T09:59:51.716Z,998.71
2023-01-30T10:00:51.705Z,998.74
2023-01-30T10:01:51.696Z,998.64
2023-01-30T10:02:51.705Z,998.69
2023-01-30T10:03:51.675Z,998.69
2023-01-30T10:05:00.946Z,998.73
2023-01-30T10:05:52.655Z,998.66
2023-01-30T10:06:51.636Z,998.70
2023-01-30T10:07:51.679Z,998.75
2023-01-30T10:08:51.638Z,998.69
2023-01-30T10:09:51.614Z,998.78
2023-01-30T10:11:04.371Z,998.71
2023-01-30T10:11:52.586Z,998.80
2023-01-30T10:12:51.571Z,998.79
2023-01-30T10:13:51.563Z,998.86
2023-01-30T10:14:51.565Z,998.75
2023-01-30T10:15:51.627Z,998.71
2023-01-30T10:16:51.525Z,998.78
2023-01-30T10:17:51.514Z,998.66
2023-01-30T10:18:51.513Z,998.65
2023-01-30T10:19:51.541Z,998.49
2023-01-30T10:20:51.552Z,998.52
2023-01-30T10:21:51.477Z,998.54
2023-01-30T10:22:51.473Z,998.54
2023-01-30T10:23:51.463Z,998.62
2023-01-30T10:24:51.434Z,998.68
2023-01-30T10:25:51.464Z,998.54
2023-01-30T10:26:51.479Z,998.54
2023-01-30T10:27:51.418Z,998.68
2023-01-30T10:28:58.802Z,998.60
2023-01-30T10:29:52.399Z,998.56
2023-01-30T10:30:51.529Z,998.45
2023-01-30T10:31:51.406Z,998.49
2023-01-30T10:32:51.353Z,998.41
2023-01-30T10:33:51.332Z,998.47
2023-01-30T10:34:51.331Z,998.52
2023-01-30T10:35:51.314Z,998.56
2023-01-30T10:36:51.322Z,998.47
2023-01-30T10:37:51.291Z,998.47
2023-01-30T10:38:51.272Z,998.54
2023-01-30T10:39:55.227Z,998.50
2023-01-30T10:40:51.253Z,998.56
2023-01-30T10:41:51.243Z,998.71
2023-01-30T10:42:51.252Z,998.69
2023-01-30T10:43:51.223Z,998.73
2023-01-30T10:44:51.212Z,998.74
2023-01-30T10:45:51.192Z,998.69
2023-01-30T10:46:51.261Z,998.71
2023-01-30T10:47:51.184Z,998.65
2023-01-30T10:48:51.215Z,998.70
2023-01-30T10:49:51.153Z,998.68
2023-01-30T10:50:51.152Z,998.56
2023-01-30T10:51:51.140Z,998.60
2023-01-30T10:52:58.170Z,998.73
2023-01-30T10:53:51.120Z,998.69
2023-01-30T10:54:51.109Z,998.74
2023-01-30T10:55:51.134Z,998.83
2023-01-30T10:56:51.083Z,998.77
2023-01-30T10:57:51.072Z,998.68
2023-01-30T10:58:51.052Z,998.62
2023-01-30T10:59:51.059Z,998.73
2023-01-30T11:00:51.028Z,998.74
2023-01-30T11:01:51.053Z,998.84
2023-01-30T11:02:51.804Z,998.75
2023-01-30T11:03:51.006Z,998.76
2023-01-30T11:04:50.996Z,998.80
2023-01-30T11:05:50.980Z,998.83
2023-01-30T11:06:50.960Z,998.81
2023-01-30T11:07:50.951Z,998.84
2023-01-30T11:08:50.939Z,998.89
2023-01-30T11:09:50.930Z,998.76
2023-01-30T11:10:50.967Z,998.83
2023-01-30T11:11:50.906Z,998.74
2023-01-30T11:12:50.901Z,998.80
2023-01-30T11:13:50.880Z,998.77
2023-01-30T11:14:50.872Z,998.62
2023-01-30T11:15:50.902Z,998.64
2023-01-30T11:16:50.869Z,998.57
2023-01-30T11:17:50.837Z,998.61
2023-01-30T11:19:19.440Z,998.59
2023-01-30T11:19:51.809Z,998.63
2023-01-30T11:20:50.801Z,998.58
2023-01-30T11:21:50.812Z,998.58
2023-01-30T11:22:50.767Z,998.65
2023-01-30T11:23:50.789Z,998.61
2023-01-30T11:24:50.751Z,998.68
2023-01-30T11:25:56.696Z,998.64
2023-01-30T11:26:51.782Z,998.71
2023-01-30T11:27:50.718Z,998.66
2023-01-30T11:28:50.727Z,998.69
2023-01-30T11:29:50.703Z,998.65
2023-01-30T11:30:50.720Z,998.68
2023-01-30T11:31:50.786Z,998.69
2023-01-30T11:32:50.724Z,998.69
2023-01-30T11:33:50.655Z,998.71
2023-01-30T11:34:50.640Z,998.74
2023-01-30T11:35:50.619Z,998.75
2023-01-30T11:36:50.627Z,998.80
2023-01-30T11:37:50.645Z,998.78
2023-01-30T11:38:50.597Z,998.83
2023-01-30T11:39:50.593Z,998.75
2023-01-30T11:40:50.567Z,998.76
2023-01-30T11:41:50.562Z,998.72
2023-01-30T11:42:50.551Z,998.70
2023-01-30T11:43:50.557Z,998.69
2023-01-30T11:44:50.535Z,998.78
2023-01-30T11:45:50.692Z,998.83
2023-01-30T11:46:50.529Z,998.87
2023-01-30T11:47:57.711Z,998.84
2023-01-30T11:49:04.134Z,998.79
2023-01-30T11:50:03.129Z,998.84
2023-01-30T11:50:51.458Z,998.81
2023-01-30T11:51:50.454Z,998.78
2023-01-30T11:52:50.446Z,998.74
2023-01-30T11:53:50.430Z,998.65
2023-01-30T11:54:50.442Z,998.58
2023-01-30T11:56:02.898Z,998.50
2023-01-30T11:56:51.393Z,998.63
2023-01-30T11:57:50.396Z,998.45
2023-01-30T11:58:50.374Z,998.53
2023-01-30T11:59:50.367Z,998.51
2023-01-30T12:00:50.370Z,998.53
2023-01-30T12:01:50.361Z,998.43
2023-01-30T12:02:50.381Z,998.48
2023-01-30T12:03:50.332Z,998.47
2023-01-30T12:04:50.299Z,998.48
2023-01-30T12:05:50.301Z,998.41
2023-01-30T12:06:50.331Z,998.48
2023-01-30T12:07:50.270Z,998.47
2023-01-30T12:08:50.249Z,998.50
2023-01-30T12:09:50.268Z,998.43
2023-01-30T12:10:50.235Z,998.47
2023-01-30T12:11:50.244Z,998.49
2023-01-30T12:12:50.214Z,998.53
2023-01-30T12:13:50.214Z,998.54
2023-01-30T12:14:50.209Z,998.52
2023-01-30T12:15:50.178Z,998.48
2023-01-30T12:16:50.289Z,998.53
2023-01-30T12:17:50.182Z,998.54
2023-01-30T12:18:50.139Z,998.59
2023-01-30T12:19:50.171Z,998.58
2023-01-30T12:20:50.124Z,998.71